Terminal Aerodrome Forecast
Issued by NWS

Home | Current Version | Previous Version | Text Only | Print | Product List | Glossary On
Versions: 1 2 3 4 5 6 7 8 9 10 11 12 13 14 15 16 17 18 19 20 21 22 23 24
000
FTUS43 KICT 161958 AAA
TAFSLN
TAF AMD
KSLN 161958Z 1620/1718 19011KT P6SM SCT110
     FM162100 28007KT P6SM VCTS BKN090CB
     FM162300 34013G19KT P6SM VCTS OVC080CB
     FM170600 01010KT P6SM VCSH OVC070
     FM171200 02008KT P6SM OVC035=

USA.gov is the U.S. government's official web portal to all federal, state and local government web resources and services.